Nipawin Airport
CYBU : now visible

Airfield :











YOU CAN JOIN US ON...

 
LOGIN :

Register | Disclaimer

   EN    FR    IT 

 









Legend :    VFR   Marginal VFR   IFR   Intensive IFR   Very Intensive IFR
Visi :
Ceiling :
>= 8 km
>= 3000ft
5 to 8 km
1000 to 3000 ft
1500m to 5 km
500 to 1000 ft
800 to 1500m
200 to 500 ft
< 800m
< 200 ft
Symbols :   Thunderstorms  Fog  Heavy snow  Heavy precipitations  Wind > 20 kt






- Airport Elevation : 1220 ft


CYBU - Nipawin

CURRENT METAR :
  • 230048Z AUTO 13004KT 5SM -SN OVC027 M13/M15 A2988 RMK SLP158

EXPIRED METARs :
  • 230000Z AUTO 15006KT 9SM -SN OVC037 M14/M15 A2991 RMK SLP164
  • 222337Z AUTO 15005KT 6SM -SN OVC037 M14/M15 A2991 RMK SLP165
  • 222331Z AUTO 15005KT 3SM -SN OVC037 M14/M15 A2992 RMK SLP166
  • 222318Z AUTO 14003KT 1 3/4SM -SN BKN037 OVC065 M14/M16 A2992 RMK SLP166
  • 222315Z AUTO 15003KT 2 1/4SM -SN BKN037 OVC070 M14/M16 A2992 RMK SLP167
  • 222300Z AUTO 16003KT 9SM -SN BKN041 OVC065 M13/M16 A2992 RMK SLP168
  • 222230Z AUTO 12004KT 9SM -SN SCT035 SCT055 BKN073 OVC085 M13/M17 A2993 RMK SLP170
  • 222200Z AUTO 00000KT 9SM FEW070 M13/M17 A2993 RMK SLP171

TAF N/A
CZWG FIR / North America



MET'MAP, your aeronautical weather chart ! - Copyright ORBIFLY December 2007 - Disclaimer

ORBIFLY MET'MAP TEAM :

Programming & Development : Alexandra Zaïnal
Concept & original design : Baudouin d'Aumeries
Assistance for programming : Marc-Olivier Méhu
Technical & hardware support : Manuel Goepfert

Contact : metmap@orbifly.com




SOURCES & CREDITS :

   NOAA       Earth
Advisory